Time;durP1;ratioP1;P1;durP2;ratioP2;P2;SDS_P1;SDS_P2;PMS_P1;PMS_P2;Temp;Humidity;BMP_temperature;BMP_pressure;BME280_temperature;BME280_humidity;BME280_pressure;Samples;Min_cycle;Max_cycle;Signal;HPM_P1;HPM_P2
2024/01/27 00:01:04;;;;;;;8.82;5.60;;;;;;;-0.94;88.21;102272.06;3175931;22;20030;-79
2024/01/27 00:02:20;;;;;;;11.80;5.65;;;;;;;-0.95;87.61;102263.50;3175289;22;20109;-79
2024/01/27 00:03:33;;;;;;;9.73;5.90;;;;;;;-0.95;88.30;102260.94;3175728;22;20023;-79
2024/01/27 00:04:48;;;;;;;6.80;5.93;;;;;;;-0.96;88.04;102261.72;3174833;22;20075;-79
2024/01/27 00:06:02;;;;;;;14.23;5.97;;;;;;;-0.97;87.89;102271.88;3180500;22;20026;-79
2024/01/27 00:07:16;;;;;;;17.05;6.63;;;;;;;-1.03;87.51;102262.13;3175037;22;20706;-78
2024/01/27 00:08:30;;;;;;;12.23;5.93;;;;;;;-1.07;87.59;102269.53;3173423;22;20019;-79
2024/01/27 00:09:44;;;;;;;8.55;7.63;;;;;;;-1.10;87.79;102267.66;3174060;22;20349;-78
2024/01/27 00:10:58;;;;;;;15.35;7.47;;;;;;;-1.12;87.42;102262.41;3174871;22;20019;-79
2024/01/27 00:12:12;;;;;;;11.05;5.93;;;;;;;-1.09;87.91;102266.84;3174629;22;20312;-79
2024/01/27 00:13:25;;;;;;;9.38;6.00;;;;;;;-1.08;88.04;102265.16;3129485;22;1044858;-79
2024/01/27 00:14:40;;;;;;;11.13;8.30;;;;;;;-1.07;87.80;102262.72;3176634;22;20016;-78
2024/01/27 00:15:54;;;;;;;10.10;7.65;;;;;;;-1.06;87.82;102266.16;3175906;22;20567;-78
2024/01/27 00:17:09;;;;;;;15.48;6.57;;;;;;;-1.06;88.05;102267.03;3176321;22;20720;-78
2024/01/27 00:18:23;;;;;;;10.43;6.82;;;;;;;-1.05;87.85;102266.25;3175978;22;20249;-78
2024/01/27 00:19:38;;;;;;;15.35;8.57;;;;;;;-1.03;88.08;102264.69;3176678;22;20269;-79
2024/01/27 00:20:51;;;;;;;21.77;10.02;;;;;;;-1.04;88.05;102267.16;3176811;22;20611;-79
2024/01/27 00:22:08;;;;;;;24.25;12.27;;;;;;;-1.06;87.75;102263.59;3176943;22;20273;-79
2024/01/27 00:23:21;;;;;;;27.00;13.65;;;;;;;-1.12;87.99;102259.84;3181765;22;20431;-79
2024/01/27 00:24:36;;;;;;;40.28;16.15;;;;;;;-1.15;87.63;102269.03;3189419;22;20328;-79
2024/01/27 00:25:49;;;;;;;22.33;10.48;;;;;;;-1.19;87.94;102270.50;3192752;22;20030;-80
2024/01/27 00:27:04;;;;;;;17.30;9.30;;;;;;;-1.21;87.63;102266.06;3191955;22;20267;-78
2024/01/27 00:28:18;;;;;;;17.83;7.50;;;;;;;-1.22;87.83;102265.16;3190827;22;20018;-79
2024/01/27 00:29:32;;;;;;;15.82;8.55;;;;;;;-1.21;87.57;102266.94;3191238;22;20265;-78
2024/01/27 00:30:45;;;;;;;16.42;7.50;;;;;;;-1.19;87.86;102272.16;3190008;22;20022;-78
2024/01/27 00:32:00;;;;;;;16.70;10.18;;;;;;;-1.16;88.15;102274.91;3190918;22;20106;-78
2024/01/27 00:33:13;;;;;;;15.80;7.63;;;;;;;-1.14;87.91;102271.66;3191850;22;20018;-78
2024/01/27 00:34:29;;;;;;;13.50;8.15;;;;;;;-1.13;88.07;102275.13;3191063;22;20791;-78
2024/01/27 00:35:43;;;;;;;12.80;8.23;;;;;;;-1.11;88.19;102278.66;3190915;22;20023;-78
2024/01/27 00:36:57;;;;;;;12.13;8.60;;;;;;;-1.12;87.90;102282.91;3192121;22;20261;-78
2024/01/27 00:38:11;;;;;;;15.77;8.57;;;;;;;-1.12;88.24;102276.91;3191849;22;20026;-78
2024/01/27 00:39:25;;;;;;;15.20;8.57;;;;;;;-1.13;88.03;102276.00;3191366;22;20336;-78
2024/01/27 00:40:39;;;;;;;16.05;8.38;;;;;;;-1.12;87.98;102284.59;3191325;22;20023;-78
2024/01/27 00:41:54;;;;;;;10.45;7.00;;;;;;;-1.13;88.26;102285.38;3191538;22;20257;-78
2024/01/27 00:43:08;;;;;;;15.20;8.07;;;;;;;-1.14;87.98;102281.03;3191148;22;20023;-79
2024/01/27 00:44:22;;;;;;;17.00;8.65;;;;;;;-1.17;88.08;102276.59;3191395;22;20788;-78
2024/01/27 00:45:36;;;;;;;19.52;9.00;;;;;;;-1.19;88.01;102282.41;3191550;22;20019;-78
2024/01/27 00:46:50;;;;;;;15.48;8.27;;;;;;;-1.21;88.04;102276.31;3192234;22;20321;-78
2024/01/27 00:48:04;;;;;;;13.95;7.20;;;;;;;-1.22;87.93;102279.66;3191378;22;20019;-79
2024/01/27 00:49:19;;;;;;;15.52;8.98;;;;;;;-1.24;88.07;102282.13;3191163;22;20292;-78
2024/01/27 00:50:33;;;;;;;17.92;9.20;;;;;;;-1.23;87.80;102289.00;3192146;22;20776;-78
2024/01/27 00:51:48;;;;;;;14.50;7.93;;;;;;;-1.25;87.89;102289.69;3191502;22;20657;-79
2024/01/27 00:53:02;;;;;;;12.73;7.95;;;;;;;-1.28;87.80;102289.50;3192006;22;20257;-79
2024/01/27 00:54:16;;;;;;;17.92;8.50;;;;;;;-1.29;88.04;102287.72;3197781;22;20259;-79
2024/01/27 00:55:29;;;;;;;12.75;7.95;;;;;;;-1.30;88.04;102285.94;3192717;22;20030;-79
2024/01/27 00:56:44;;;;;;;20.48;10.07;;;;;;;-1.34;87.96;102283.19;3199052;22;20236;-79
2024/01/27 00:57:57;;;;;;;13.27;9.15;;;;;;;-1.37;87.66;102279.53;3194249;22;20022;-78
2024/01/27 00:59:12;;;;;;;12.45;8.40;;;;;;;-1.40;88.02;102280.22;3191180;22;20267;-79
2024/01/27 01:00:25;;;;;;;15.23;8.55;;;;;;;-1.42;87.99;102281.81;3191288;22;20019;-78
2024/01/27 01:01:40;;;;;;;15.85;7.53;;;;;;;-1.44;87.76;102285.94;3191609;22;20259;-78
2024/01/27 01:02:53;;;;;;;10.57;8.50;;;;;;;-1.45;87.91;102289.25;3191539;22;20333;-79
2024/01/27 01:04:08;;;;;;;15.43;8.05;;;;;;;-1.43;88.00;102286.81;3191294;22;20277;-79
2024/01/27 01:05:21;;;;;;;17.33;8.45;;;;;;;-1.41;88.17;102288.69;3191947;22;20516;-79
2024/01/27 01:06:39;;;;;;;14.85;10.98;;;;;;;-1.40;88.11;102298.13;3192265;22;20295;-78
2024/01/27 01:07:53;;;;;;;10.32;6.93;;;;;;;-1.41;88.01;102293.81;3191102;22;20034;-79
2024/01/27 01:09:08;;;;;;;15.57;7.45;;;;;;;-1.41;87.98;102295.50;3191461;22;20594;-78
2024/01/27 01:10:22;;;;;;;16.70;7.63;;;;;;;-1.41;88.09;102296.38;3191457;22;20042;-79
2024/01/27 01:11:36;;;;;;;11.57;7.82;;;;;;;-1.40;88.20;102297.25;3191753;22;20271;-78
2024/01/27 01:12:49;;;;;;;16.45;8.18;;;;;;;-1.39;88.23;102294.81;3190963;22;20023;-78
2024/01/27 01:14:04;;;;;;;13.73;7.68;;;;;;;-1.42;87.84;102298.81;3191419;22;20343;-78
2024/01/27 01:15:17;;;;;;;9.80;8.30;;;;;;;-1.46;88.05;102301.97;3191710;22;20023;-78
2024/01/27 01:16:32;;;;;;;16.10;8.93;;;;;;;-1.51;87.85;102306.78;3191223;22;20245;-78
2024/01/27 01:17:45;;;;;;;12.38;9.13;;;;;;;-1.55;87.83;102302.22;3191852;22;20453;-78
2024/01/27 01:19:00;;;;;;;15.25;8.07;;;;;;;-1.56;88.13;102301.34;3191781;22;20311;-79
2024/01/27 01:20:13;;;;;;;10.32;7.40;;;;;;;-1.55;87.99;102309.91;3191321;22;20026;-78
2024/01/27 01:21:28;;;;;;;12.88;8.25;;;;;;;-1.56;87.91;102309.03;3191979;22;20734;-78
2024/01/27 01:22:43;;;;;;;11.02;7.65;;;;;;;-1.58;87.89;102300.34;3191616;22;20027;-78
2024/01/27 01:23:57;;;;;;;13.68;8.13;;;;;;;-1.60;87.96;102312.19;3191081;22;20271;-78
2024/01/27 01:25:10;;;;;;;15.98;7.70;;;;;;;-1.58;88.21;102312.28;3191536;22;20256;-78
2024/01/27 01:26:25;;;;;;;11.65;8.23;;;;;;;-1.53;88.20;102313.47;3191421;22;20317;-78
2024/01/27 01:27:39;;;;;;;16.48;8.65;;;;;;;-1.51;88.16;102311.91;3190646;22;20019;-79
2024/01/27 01:28:53;;;;;;;12.50;9.02;;;;;;;-1.51;88.28;102318.72;3192316;22;20271;-79
2024/01/27 01:30:07;;;;;;;13.88;8.13;;;;;;;-1.54;88.17;102314.28;3192618;22;20023;-79
2024/01/27 01:31:22;;;;;;;18.00;6.90;;;;;;;-1.55;88.12;102315.03;3192315;22;20260;-78
2024/01/27 01:32:35;;;;;;;11.52;7.35;;;;;;;-1.56;88.20;102318.41;3191041;22;20248;-78
2024/01/27 01:33:49;;;;;;;11.05;7.57;;;;;;;-1.54;88.02;102316.84;3191498;22;20269;-78
2024/01/27 01:35:04;;;;;;;14.18;7.88;;;;;;;-1.55;88.27;102321.06;3191398;22;20018;-78
2024/01/27 01:36:18;;;;;;;12.43;6.85;;;;;;;-1.56;88.18;102323.50;3192864;22;20245;-78
2024/01/27 01:37:31;;;;;;;14.88;8.20;;;;;;;-1.54;87.96;102317.72;3191352;22;20252;-77
2024/01/27 01:38:47;;;;;;;17.70;8.40;;;;;;;-1.54;88.12;102322.84;3191120;22;20642;-78
2024/01/27 01:40:01;;;;;;;13.80;7.85;;;;;;;-1.56;88.08;102326.06;3191575;22;20453;-78
2024/01/27 01:41:15;;;;;;;11.82;7.22;;;;;;;-1.58;87.74;102325.06;3191493;22;20261;-78
2024/01/27 01:42:29;;;;;;;18.02;10.63;;;;;;;-1.59;87.89;102324.19;3191971;22;20023;-78
2024/01/27 01:43:43;;;;;;;16.10;8.77;;;;;;;-1.58;88.21;102332.75;3191550;22;20299;-79
2024/01/27 01:44:57;;;;;;;24.35;8.98;;;;;;;-1.59;88.06;102334.44;3191395;22;20026;-79
2024/01/27 01:46:11;;;;;;;11.43;8.35;;;;;;;-1.59;88.30;102331.88;3191826;22;20260;-78
2024/01/27 01:47:25;;;;;;;17.73;9.88;;;;;;;-1.58;87.87;102345.56;3191596;22;20054;-79
2024/01/27 01:48:40;;;;;;;12.90;8.43;;;;;;;-1.60;87.78;102348.03;3191272;22;20567;-79
2024/01/27 01:49:55;;;;;;;18.48;7.85;;;;;;;-1.57;88.36;102347.34;3192786;22;20577;-79
2024/01/27 01:51:09;;;;;;;19.35;9.85;;;;;;;-1.55;88.36;102351.78;3192371;22;20325;-79
2024/01/27 01:52:23;;;;;;;14.02;7.90;;;;;;;-1.55;88.06;102348.31;3191683;22;20241;-78
2024/01/27 01:53:37;;;;;;;15.70;8.40;;;;;;;-1.56;88.33;102355.13;3196734;22;20261;-78
2024/01/27 01:54:52;;;;;;;12.18;8.82;;;;;;;-1.57;88.04;102355.91;3192598;22;20026;-78
2024/01/27 01:56:08;;;;;;;12.85;8.80;;;;;;;-1.59;88.07;102348.91;3191458;22;20561;-78
2024/01/27 01:57:21;;;;;;;10.02;7.57;;;;;;;-1.64;88.09;102352.84;3191581;22;20253;-78
2024/01/27 01:58:36;;;;;;;14.35;7.53;;;;;;;-1.68;88.28;102341.47;3191953;22;20276;-79
2024/01/27 01:59:49;;;;;;;17.60;8.40;;;;;;;-1.71;88.03;102350.63;3195760;22;20354;-78
2024/01/27 02:01:04;;;;;;;11.15;7.07;;;;;;;-1.78;87.77;102347.66;3196070;22;20343;-78
2024/01/27 02:02:18;;;;;;;11.90;8.52;;;;;;;-1.82;87.84;102344.78;3198267;22;20335;-79
2024/01/27 02:03:32;;;;;;;23.23;8.98;;;;;;;-1.85;88.12;102345.47;3191179;22;20300;-79
2024/01/27 02:04:46;;;;;;;16.48;7.35;;;;;;;-1.87;87.83;102352.13;3190534;22;20014;-79
2024/01/27 02:06:00;;;;;;;14.50;7.38;;;;;;;-1.88;88.12;102350.38;3191908;22;20267;-78
2024/01/27 02:07:14;;;;;;;10.68;7.50;;;;;;;-1.88;88.17;102355.50;3191293;22;20019;-78
2024/01/27 02:08:28;;;;;;;8.25;6.65;;;;;;;-1.88;88.12;102360.59;3190921;22;20267;-78
2024/01/27 02:09:42;;;;;;;16.35;8.43;;;;;;;-1.83;88.35;102368.63;3191449;22;20033;-78
2024/01/27 02:10:58;;;;;;;10.25;6.78;;;;;;;-1.77;88.42;102364.78;3191571;22;20336;-78
2024/01/27 02:12:11;;;;;;;14.15;8.95;;;;;;;-1.71;88.55;102376.22;3190883;22;20019;-78
2024/01/27 02:13:27;;;;;;;16.55;8.38;;;;;;;-1.70;88.67;102372.88;3197004;22;20267;-78
2024/01/27 02:14:40;;;;;;;25.45;9.50;;;;;;;-1.69;88.24;102377.22;3197213;22;20041;-79
2024/01/27 02:15:55;;;;;;;12.05;8.75;;;;;;;-1.68;88.52;102381.56;3191502;22;20265;-78
2024/01/27 02:17:08;;;;;;;12.20;6.90;;;;;;;-1.69;88.38;102388.34;3191347;22;20042;-78
2024/01/27 02:18:22;;;;;;;10.45;7.10;;;;;;;-1.71;88.70;102384.78;3191438;22;20265;-78
2024/01/27 02:19:36;;;;;;;15.88;9.40;;;;;;;-1.70;88.22;102383.13;3196904;22;20014;-78
2024/01/27 02:20:49;;;;;;;16.58;7.47;;;;;;;-1.70;88.15;102386.59;3191104;22;20349;-79
2024/01/27 02:22:04;;;;;;;11.63;8.52;;;;;;;-1.69;88.39;102379.78;3191991;22;20261;-78
2024/01/27 02:23:18;;;;;;;13.73;7.95;;;;;;;-1.72;88.49;102375.34;3191615;22;20023;-78
2024/01/27 02:24:33;;;;;;;16.10;8.90;;;;;;;-1.75;88.29;102375.13;3191253;22;20249;-79
2024/01/27 02:25:47;;;;;;;14.27;8.63;;;;;;;-1.78;87.95;102378.38;3196443;22;20019;-78
2024/01/27 02:27:01;;;;;;;18.45;9.15;;;;;;;-1.80;88.34;102374.81;3192011;22;20356;-79
2024/01/27 02:28:15;;;;;;;18.70;8.35;;;;;;;-1.81;88.34;102372.13;3191503;22;20015;-78
2024/01/27 02:29:29;;;;;;;13.63;7.93;;;;;;;-1.83;88.09;102368.63;3191926;22;20806;-78
2024/01/27 02:30:43;;;;;;;14.73;7.63;;;;;;;-1.83;88.36;102373.72;3191730;22;20042;-78
2024/01/27 02:31:57;;;;;;;12.10;7.25;;;;;;;-1.80;88.33;102377.38;3190997;22;20271;-78
2024/01/27 02:33:11;;;;;;;15.70;9.20;;;;;;;-1.78;88.54;102373.25;3191499;22;20022;-78
2024/01/27 02:34:25;;;;;;;15.13;7.60;;;;;;;-1.74;88.19;102371.78;3191177;22;20264;-78
2024/01/27 02:35:38;;;;;;;12.85;8.07;;;;;;;-1.73;88.68;102381.22;3190935;22;20019;-78
2024/01/27 02:36:53;;;;;;;11.98;8.07;;;;;;;-1.72;88.19;102374.47;3191457;22;20642;-78
2024/01/27 02:38:06;;;;;;;11.00;6.38;;;;;;;-1.71;88.13;102383.91;3191484;22;20100;-78
2024/01/27 02:39:21;;;;;;;11.15;7.55;;;;;;;-1.70;88.24;102380.56;3191371;22;20317;-78
2024/01/27 02:40:36;;;;;;;15.20;6.70;;;;;;;-1.71;88.45;102371.09;3190425;22;20075;-78
2024/01/27 02:41:50;;;;;;;14.32;6.75;;;;;;;-1.71;88.66;102376.22;3191214;22;20322;-78
2024/01/27 02:43:04;;;;;;;21.98;11.55;;;;;;;-1.71;88.57;102373.66;3191461;22;20257;-79
2024/01/27 02:44:18;;;;;;;10.27;7.13;;;;;;;-1.72;88.44;102375.34;3190383;22;20245;-78
2024/01/27 02:45:31;;;;;;;10.82;6.63;;;;;;;-1.78;88.07;102370.69;3191492;22;20030;-78
2024/01/27 02:46:46;;;;;;;18.63;8.15;;;;;;;-1.83;87.97;102369.50;3191729;22;20268;-78
2024/01/27 02:47:59;;;;;;;8.27;5.88;;;;;;;-1.87;88.04;102374.28;3190790;22;20389;-78
2024/01/27 02:49:14;;;;;;;10.20;6.78;;;;;;;-1.92;88.03;102368.84;3191395;22;20265;-78
2024/01/27 02:50:27;;;;;;;13.13;6.85;;;;;;;-1.94;88.23;102375.50;3191587;22;20019;-78
2024/01/27 02:51:42;;;;;;;18.17;7.25;;;;;;;-1.96;87.85;102379.66;3191288;22;20345;-78
2024/01/27 02:52:55;;;;;;;8.63;6.25;;;;;;;-1.99;88.07;102377.78;3191533;22;20038;-78
2024/01/27 02:54:09;;;;;;;17.05;11.05;;;;;;;-2.00;88.48;102380.22;3191782;22;20781;-78
2024/01/27 02:55:23;;;;;;;16.63;6.22;;;;;;;-1.98;88.75;102378.66;3196557;22;20030;-78
2024/01/27 02:56:39;;;;;;;13.82;7.43;;;;;;;-1.88;88.76;102385.31;3190947;22;20249;-78
2024/01/27 02:57:52;;;;;;;12.07;6.70;;;;;;;-1.80;88.26;102387.63;3191203;22;20023;-78
2024/01/27 02:59:06;;;;;;;12.50;7.30;;;;;;;-1.72;88.73;102397.50;3190893;22;20359;-78
2024/01/27 03:00:20;;;;;;;16.67;7.00;;;;;;;-1.68;88.63;102391.78;3190704;22;20465;-78
2024/01/27 03:01:34;;;;;;;20.63;7.20;;;;;;;-1.67;88.62;102389.34;3191796;22;20340;-78
2024/01/27 03:02:48;;;;;;;12.82;6.75;;;;;;;-1.64;88.15;102396.34;3191476;22;20030;-78
2024/01/27 03:04:03;;;;;;;8.20;5.97;;;;;;;-1.63;88.15;102393.00;3194375;22;20641;-78
2024/01/27 03:05:17;;;;;;;10.07;6.40;;;;;;;-1.62;88.41;102394.78;3200024;22;20026;-78
2024/01/27 03:06:31;;;;;;;11.75;5.88;;;;;;;-1.65;88.05;102395.47;3197655;22;20283;-78
2024/01/27 03:07:44;;;;;;;9.88;6.72;;;;;;;-1.68;88.24;102391.78;3195114;22;20021;-78
2024/01/27 03:08:59;;;;;;;10.23;5.72;;;;;;;-1.72;87.93;102389.81;3196262;22;20333;-78
2024/01/27 03:10:12;;;;;;;10.20;5.68;;;;;;;-1.73;88.19;102382.91;3191333;22;20029;-78
2024/01/27 03:11:27;;;;;;;10.02;6.13;;;;;;;-1.76;88.06;102381.94;3190967;22;20351;-78
2024/01/27 03:12:41;;;;;;;12.70;6.38;;;;;;;-1.76;88.21;102375.91;3191085;22;20014;-79
2024/01/27 03:13:56;;;;;;;13.20;7.47;;;;;;;-1.78;87.78;102380.94;3180617;22;20254;-77
2024/01/27 03:15:09;;;;;;;8.48;5.40;;;;;;;-1.78;87.83;102374.94;3159994;22;20261;-77
2024/01/27 03:16:24;;;;;;;16.58;7.18;;;;;;;-1.74;88.08;102387.16;3159072;22;20250;-77
2024/01/27 03:17:37;;;;;;;17.80;9.20;;;;;;;-1.72;88.15;102383.03;3159607;22;20354;-77
2024/01/27 03:18:52;;;;;;;9.60;5.55;;;;;;;-1.69;87.95;102387.47;3159771;22;20266;-77
2024/01/27 03:20:08;;;;;;;12.63;7.45;;;;;;;-1.69;88.28;102382.34;3160437;22;20059;-77
2024/01/27 03:21:22;;;;;;;8.57;6.05;;;;;;;-1.72;88.25;102382.16;3161030;22;20262;-77
2024/01/27 03:22:36;;;;;;;10.95;6.10;;;;;;;-1.73;87.79;102380.34;3160494;22;20254;-78
2024/01/27 03:23:50;;;;;;;10.32;5.70;;;;;;;-1.76;87.85;102379.38;3159830;22;20268;-78
2024/01/27 03:25:04;;;;;;;18.35;6.13;;;;;;;-1.73;87.87;102385.47;3160547;22;20023;-78
2024/01/27 03:26:19;;;;;;;11.38;6.20;;;;;;;-1.73;88.01;102386.34;3159446;22;20262;-78
2024/01/27 03:27:32;;;;;;;10.30;6.60;;;;;;;-1.78;88.31;102383.50;3159430;22;20258;-78
2024/01/27 03:28:48;;;;;;;14.68;6.55;;;;;;;-1.80;88.08;102384.16;3159248;22;20250;-78
2024/01/27 03:30:03;;;;;;;18.52;7.07;;;;;;;-1.84;87.74;102379.59;3160476;22;20023;-78
2024/01/27 03:31:17;;;;;;;6.90;5.60;;;;;;;-1.86;87.73;102386.28;3159317;22;20266;-78
2024/01/27 03:32:31;;;;;;;13.32;7.22;;;;;;;-1.89;87.65;102386.97;3158536;22;20253;-79
2024/01/27 03:33:46;;;;;;;18.08;10.60;;;;;;;-1.90;87.96;102392.00;3159165;22;20262;-78
2024/01/27 03:34:59;;;;;;;26.50;14.18;;;;;;;-1.92;87.98;102381.63;3158522;22;20026;-78
2024/01/27 03:36:14;;;;;;;28.92;18.52;;;;;;;-1.89;87.72;102388.63;3158379;22;20576;-78
2024/01/27 03:37:27;;;;;;;20.80;9.77;;;;;;;-1.86;88.21;102386.28;3159675;22;20023;-78
2024/01/27 03:38:42;;;;;;;12.52;7.78;;;;;;;-1.86;87.84;102384.66;3159014;22;20294;-78
2024/01/27 03:39:56;;;;;;;8.63;6.97;;;;;;;-1.86;88.13;102379.53;3158770;22;20024;-79
2024/01/27 03:41:10;;;;;;;12.60;7.53;;;;;;;-1.86;87.89;102387.19;3159545;22;20266;-78
2024/01/27 03:42:24;;;;;;;10.50;6.57;;;;;;;-1.87;87.94;102385.41;3161099;22;20023;-78
2024/01/27 03:43:38;;;;;;;11.45;5.97;;;;;;;-1.88;88.20;102390.44;3160716;22;20262;-78
2024/01/27 03:44:53;;;;;;;9.70;6.03;;;;;;;-1.89;88.14;102386.06;3159902;22;20023;-78
2024/01/27 03:46:07;;;;;;;28.10;6.75;;;;;;;-1.89;87.88;102388.63;3161365;22;20328;-78
2024/01/27 03:47:21;;;;;;;9.18;5.80;;;;;;;-1.91;88.29;102388.56;3160250;22;20265;-78
2024/01/27 03:48:35;;;;;;;15.07;6.85;;;;;;;-1.91;88.15;102387.63;3159021;22;20250;-78
2024/01/27 03:49:49;;;;;;;11.40;7.57;;;;;;;-1.92;88.27;102391.00;3160903;22;20090;-78
2024/01/27 03:51:04;;;;;;;14.13;6.88;;;;;;;-1.98;88.05;102383.78;3161028;22;20262;-78
2024/01/27 03:52:18;;;;;;;9.93;5.93;;;;;;;-2.02;88.07;102382.66;3160601;22;20350;-78
2024/01/27 03:53:32;;;;;;;15.30;6.40;;;;;;;-2.07;87.61;102386.56;3160865;22;20333;-78
2024/01/27 03:54:45;;;;;;;8.50;5.88;;;;;;;-2.08;87.90;102381.34;3161640;22;20024;-78
2024/01/27 03:56:02;;;;;;;11.75;6.03;;;;;;;-2.07;87.78;102390.78;3160038;22;20252;-79
2024/01/27 03:57:16;;;;;;;10.88;5.90;;;;;;;-2.05;87.84;102396.91;3160354;22;20043;-78
2024/01/27 03:58:31;;;;;;;14.00;6.15;;;;;;;-2.03;87.83;102391.13;3160289;22;20732;-78
2024/01/27 03:59:45;;;;;;;10.95;5.78;;;;;;;-2.02;88.07;102403.13;3160797;22;20044;-78
2024/01/27 04:01:01;;;;;;;15.05;8.65;;;;;;;-2.01;88.01;102406.59;3160573;22;20654;-78
2024/01/27 04:02:14;;;;;;;15.30;7.18;;;;;;;-2.04;88.30;102403.78;3160651;22;20023;-78
2024/01/27 04:03:29;;;;;;;12.60;5.78;;;;;;;-2.07;88.27;102408.69;3160336;22;20584;-78
2024/01/27 04:04:42;;;;;;;7.88;6.10;;;;;;;-2.13;88.07;102409.16;3160942;22;20023;-78
2024/01/27 04:05:56;;;;;;;11.38;6.22;;;;;;;-2.16;87.97;102405.50;3161469;22;20337;-78
2024/01/27 04:07:10;;;;;;;12.75;8.70;;;;;;;-2.16;88.19;102418.31;3161819;22;20351;-78
2024/01/27 04:08:24;;;;;;;12.90;6.25;;;;;;;-2.18;88.13;102410.50;3159980;22;20247;-79
2024/01/27 04:09:38;;;;;;;11.25;6.72;;;;;;;-2.17;88.22;102412.28;3160972;22;20020;-78
2024/01/27 04:10:52;;;;;;;11.68;5.60;;;;;;;-2.20;88.08;102412.06;3160346;22;20895;-78
2024/01/27 04:12:06;;;;;;;8.80;6.15;;;;;;;-2.21;87.94;102406.06;3159420;22;20070;-78
2024/01/27 04:13:20;;;;;;;9.80;7.65;;;;;;;-2.22;87.76;102414.53;3160639;22;20266;-78
2024/01/27 04:14:34;;;;;;;13.60;6.55;;;;;;;-2.22;88.23;102413.59;3160195;22;20027;-78
2024/01/27 04:15:51;;;;;;;6.43;5.40;;;;;;;-2.25;87.74;102418.50;3159328;22;20262;-78
2024/01/27 04:17:05;;;;;;;8.50;5.43;;;;;;;-2.24;88.29;102415.19;3158392;22;20020;-78
2024/01/27 04:18:20;;;;;;;8.20;6.38;;;;;;;-2.22;88.30;102423.84;3158115;22;20660;-77
2024/01/27 04:19:33;;;;;;;10.68;5.00;;;;;;;-2.22;87.81;102424.75;3158520;22;20262;-77
2024/01/27 04:20:48;;;;;;;15.20;8.10;;;;;;;-2.21;87.95;102423.97;3158181;22;20800;-77
2024/01/27 04:22:02;;;;;;;12.85;5.47;;;;;;;-2.22;88.03;102423.84;3158706;22;20069;-77
2024/01/27 04:23:17;;;;;;;16.95;6.25;;;;;;;-2.25;88.43;102424.50;3158563;22;20266;-77
2024/01/27 04:24:30;;;;;;;13.60;5.90;;;;;;;-2.24;88.38;102423.75;3157708;22;20250;-77
2024/01/27 04:25:45;;;;;;;8.98;5.72;;;;;;;-2.26;88.11;102424.41;3158629;22;20266;-77
2024/01/27 04:26:59;;;;;;;8.75;5.45;;;;;;;-2.29;88.01;102424.22;3158215;22;20389;-77
2024/01/27 04:28:14;;;;;;;11.45;5.97;;;;;;;-2.35;87.78;102414.44;3157947;22;20250;-77
2024/01/27 04:29:27;;;;;;;10.48;5.10;;;;;;;-2.37;87.70;102423.66;3158661;22;20258;-77
2024/01/27 04:30:42;;;;;;;10.10;8.13;;;;;;;-2.44;88.17;102419.75;3158207;22;20956;-77
2024/01/27 04:31:55;;;;;;;8.85;6.07;;;;;;;-2.45;87.82;102420.53;3158202;22;20073;-77
2024/01/27 04:33:12;;;;;;;11.52;4.82;;;;;;;-2.46;87.94;102430.66;3158548;22;20262;-77
2024/01/27 04:34:26;;;;;;;7.05;5.95;;;;;;;-2.47;88.31;102432.31;3158406;22;20027;-77
2024/01/27 04:35:40;;;;;;;8.18;5.68;;;;;;;-2.48;87.95;102429.63;3157768;22;20265;-77
2024/01/27 04:36:54;;;;;;;12.15;5.57;;;;;;;-2.51;88.26;102434.53;3158725;22;20024;-78
2024/01/27 04:38:08;;;;;;;11.77;5.03;;;;;;;-2.53;87.78;102437.00;3158732;22;20254;-77
2024/01/27 04:39:22;;;;;;;8.65;5.20;;;;;;;-2.51;88.00;102439.66;3158822;22;20270;-78
2024/01/27 04:40:36;;;;;;;8.15;5.40;;;;;;;-2.49;87.74;102432.97;3158117;22;20023;-77
2024/01/27 04:41:50;;;;;;;11.98;6.18;;;;;;;-2.48;87.96;102434.75;3158764;22;20262;-77
2024/01/27 04:43:03;;;;;;;10.90;5.32;;;;;;;-2.48;87.94;102445.88;3158623;22;20034;-77
2024/01/27 04:44:20;;;;;;;12.18;6.07;;;;;;;-2.46;88.03;102438.31;3157951;22;20322;-78
2024/01/27 04:45:33;;;;;;;11.30;7.30;;;;;;;-2.46;88.22;102438.31;3158580;22;20020;-77
2024/01/27 04:46:48;;;;;;;12.98;5.63;;;;;;;-2.50;88.05;102444.88;3157770;22;20262;-77
2024/01/27 04:48:01;;;;;;;10.00;5.20;;;;;;;-2.52;87.89;102440.44;3157850;22;20016;-77
2024/01/27 04:49:17;;;;;;;14.25;5.55;;;;;;;-2.54;88.01;102435.19;3158304;22;20293;-77
2024/01/27 04:50:30;;;;;;;10.98;6.07;;;;;;;-2.56;88.19;102431.63;3158571;22;20023;-77
2024/01/27 04:51:45;;;;;;;6.68;5.30;;;;;;;-2.56;87.90;102438.41;3158044;22;20273;-77
2024/01/27 04:52:59;;;;;;;11.75;6.35;;;;;;;-2.57;87.84;102442.66;3158717;22;20031;-77
2024/01/27 04:54:13;;;;;;;6.93;5.50;;;;;;;-2.58;88.16;102437.41;3158702;22;20751;-77
2024/01/27 04:55:27;;;;;;;9.90;5.25;;;;;;;-2.55;87.92;102437.66;3158739;22;20020;-77
2024/01/27 04:56:41;;;;;;;10.10;6.22;;;;;;;-2.54;88.29;102447.97;3157905;22;20724;-77
2024/01/27 04:57:55;;;;;;;12.20;5.95;;;;;;;-2.50;87.77;102436.34;3158135;22;20054;-77
2024/01/27 04:59:09;;;;;;;11.27;5.53;;;;;;;-2.50;88.34;102444.00;3158654;22;20758;-78
2024/01/27 05:00:23;;;;;;;8.15;5.40;;;;;;;-2.48;88.43;102437.31;3157882;22;20024;-77
2024/01/27 05:01:38;;;;;;;9.30;5.32;;;;;;;-2.47;87.85;102436.53;3158462;22;20691;-77
2024/01/27 05:02:51;;;;;;;9.32;5.80;;;;;;;-2.48;87.86;102432.19;3158612;22;20254;-77
2024/01/27 05:04:05;;;;;;;11.90;5.78;;;;;;;-2.51;87.95;102442.19;3157146;22;20558;-77
2024/01/27 05:05:20;;;;;;;14.55;6.07;;;;;;;-2.55;88.18;102433.44;3158294;22;20351;-77
2024/01/27 05:06:35;;;;;;;11.55;8.05;;;;;;;-2.58;87.84;102433.22;3158533;22;20281;-77
2024/01/27 05:07:48;;;;;;;20.03;11.93;;;;;;;-2.61;87.75;102432.97;3158195;22;20261;-77
2024/01/27 05:09:03;;;;;;;14.50;7.70;;;;;;;-2.64;88.13;102425.97;3158444;22;20266;-77
2024/01/27 05:10:17;;;;;;;13.60;6.55;;;;;;;-2.64;87.70;102422.53;3158398;22;20023;-77
2024/01/27 05:11:32;;;;;;;7.93;5.90;;;;;;;-2.67;87.97;102432.53;3158710;22;20602;-77
2024/01/27 05:12:45;;;;;;;12.88;5.30;;;;;;;-2.71;87.80;102433.97;3157952;22;20477;-78
2024/01/27 05:14:00;;;;;;;8.07;4.50;;;;;;;-2.74;88.17;102431.16;3158196;22;20262;-77
2024/01/27 05:15:14;;;;;;;12.18;6.65;;;;;;;-2.75;88.24;102428.53;3158440;22;20028;-77
2024/01/27 05:16:28;;;;;;;6.93;4.68;;;;;;;-2.79;87.61;102429.94;3157946;22;20256;-77
2024/01/27 05:17:42;;;;;;;11.80;5.80;;;;;;;-2.81;87.98;102423.84;3158211;22;20024;-77
2024/01/27 05:18:56;;;;;;;6.97;4.83;;;;;;;-2.83;88.16;102425.41;3158262;22;20572;-77
2024/01/27 05:20:10;;;;;;;6.97;4.50;;;;;;;-2.86;87.77;102430.28;3158079;22;20016;-77
2024/01/27 05:21:26;;;;;;;9.73;5.53;;;;;;;-2.89;87.62;102424.94;3158431;22;20803;-77
2024/01/27 05:22:39;;;;;;;9.95;5.03;;;;;;;-2.91;87.88;102422.28;3157637;22;20020;-77
2024/01/27 05:23:54;;;;;;;12.80;7.43;;;;;;;-2.93;88.19;102428.94;3157629;22;20270;-77
2024/01/27 05:25:08;;;;;;;12.67;6.47;;;;;;;-2.94;87.69;102427.16;3158206;22;20118;-77
2024/01/27 05:26:22;;;;;;;8.43;5.57;;;;;;;-2.96;87.97;102428.72;3158185;22;20263;-76
2024/01/27 05:27:36;;;;;;;7.07;5.75;;;;;;;-2.94;87.93;102424.59;3158120;22;20020;-77
2024/01/27 05:28:51;;;;;;;18.42;7.07;;;;;;;-2.92;87.81;102432.38;3157779;22;20251;-76
2024/01/27 05:30:05;;;;;;;11.17;5.73;;;;;;;-2.93;87.79;102428.03;3158400;22;20266;-77
2024/01/27 05:31:20;;;;;;;6.93;5.45;;;;;;;-2.94;87.66;102422.06;3158440;22;20262;-77
2024/01/27 05:32:33;;;;;;;9.23;6.38;;;;;;;-2.95;88.08;102427.91;3157701;22;20257;-77
2024/01/27 05:33:48;;;;;;;9.02;5.97;;;;;;;-2.96;87.70;102430.38;3157969;22;20762;-78
2024/01/27 05:35:02;;;;;;;9.00;5.70;;;;;;;-2.99;87.86;102428.50;3158210;22;20353;-77
2024/01/27 05:36:17;;;;;;;7.75;5.30;;;;;;;-2.98;87.97;102424.25;3157708;22;20329;-77
2024/01/27 05:37:32;;;;;;;11.05;5.25;;;;;;;-2.97;88.02;102423.47;3158330;22;20258;-77
2024/01/27 05:38:46;;;;;;;10.43;5.88;;;;;;;-2.97;87.87;102426.94;3158195;22;20262;-77
2024/01/27 05:39:59;;;;;;;7.93;5.32;;;;;;;-2.98;88.04;102424.25;3157128;22;20601;-77
2024/01/27 05:41:14;;;;;;;22.75;10.88;;;;;;;-3.02;87.96;102420.59;3157932;22;20268;-77
2024/01/27 05:42:27;;;;;;;15.93;6.85;;;;;;;-3.06;87.60;102418.56;3158362;22;20031;-77